createdAt,value
2019-04-29T00:00:25.903Z,9.09
2019-04-29T00:03:29.254Z,9.11
2019-04-29T00:06:32.158Z,9.11
2019-04-29T00:09:35.079Z,9.31
2019-04-29T00:12:38.467Z,9.10
2019-04-29T00:16:03.892Z,9.24
2019-04-29T00:19:29.217Z,9.23
2019-04-29T00:22:33.216Z,9.12
2019-04-29T00:25:36.171Z,9.21
2019-04-29T00:28:39.196Z,8.82
2019-04-29T00:31:42.197Z,8.67
2019-04-29T00:34:45.117Z,8.66
2019-04-29T00:38:06.787Z,8.78
2019-04-29T00:41:38.552Z,8.74
2019-04-29T00:44:41.570Z,8.67
2019-04-29T00:47:45.565Z,8.59
2019-04-29T00:50:48.509Z,8.65
2019-04-29T00:53:54.093Z,8.48
2019-04-29T00:56:57.009Z,8.34
2019-04-29T00:59:59.925Z,8.53
2019-04-29T01:03:03.122Z,8.58
2019-04-29T01:06:06.447Z,8.45
2019-04-29T01:09:13.335Z,8.40
2019-04-29T01:12:16.243Z,8.44
2019-04-29T01:15:19.163Z,8.49
2019-04-29T01:18:22.093Z,8.52
2019-04-29T01:21:25.039Z,8.44
2019-04-29T01:24:27.955Z,8.49
2019-04-29T01:27:37.190Z,8.43
2019-04-29T01:31:00.688Z,8.43
2019-04-29T01:34:10.508Z,8.30
2019-04-29T01:37:13.438Z,8.44
2019-04-29T01:40:35.195Z,8.35
2019-04-29T01:43:56.325Z,8.43
2019-04-29T01:46:59.280Z,8.26
2019-04-29T01:50:02.724Z,8.38
2019-04-29T01:53:05.747Z,8.32
2019-04-29T01:56:08.664Z,8.52
2019-04-29T01:59:11.564Z,8.39
2019-04-29T02:02:14.484Z,8.52
2019-04-29T02:05:17.407Z,8.59
2019-04-29T02:08:20.312Z,8.47
2019-04-29T02:11:23.537Z,8.53
2019-04-29T02:14:26.443Z,8.46
2019-04-29T02:17:29.380Z,8.43
2019-04-29T02:20:32.297Z,8.46
2019-04-29T02:23:43.383Z,8.38
2019-04-29T02:26:46.311Z,8.36
2019-04-29T02:29:49.210Z,8.25
2019-04-29T02:32:52.135Z,8.42
2019-04-29T02:35:55.062Z,8.24
2019-04-29T02:39:33.873Z,8.26
2019-04-29T02:43:02.515Z,8.25
2019-04-29T02:46:05.832Z,8.51
2019-04-29T02:49:09.000Z,8.29
2019-04-29T02:52:11.918Z,8.18
2019-04-29T02:55:18.390Z,8.16
2019-04-29T02:58:37.203Z,8.24
2019-04-29T03:01:50.501Z,8.10
2019-04-29T03:05:12.244Z,8.36
2019-04-29T03:08:15.193Z,8.31
2019-04-29T03:11:19.999Z,8.38
2019-04-29T03:14:23.264Z,8.17
2019-04-29T03:17:28.796Z,8.25
2019-04-29T03:20:51.282Z,8.09
2019-04-29T03:23:55.329Z,7.86
2019-04-29T03:26:58.248Z,8.01
2019-04-29T03:30:01.167Z,7.96
2019-04-29T03:33:04.099Z,8.06
2019-04-29T03:36:06.988Z,8.07
2019-04-29T03:39:10.244Z,7.78
2019-04-29T03:42:13.187Z,8.04
2019-04-29T03:45:16.448Z,7.81
2019-04-29T03:48:19.425Z,7.87
2019-04-29T03:51:22.391Z,8.02
2019-04-29T03:54:25.354Z,8.04
2019-04-29T03:57:30.996Z,8.05
2019-04-29T04:00:33.888Z,7.92
2019-04-29T04:03:42.010Z,8.17
2019-04-29T04:06:50.758Z,8.13
2019-04-29T04:09:53.955Z,7.82
2019-04-29T04:12:56.883Z,7.86
2019-04-29T04:15:59.990Z,7.77
2019-04-29T04:19:07.211Z,7.76
2019-04-29T04:22:11.229Z,7.64
2019-04-29T04:25:14.295Z,7.81
2019-04-29T04:28:17.351Z,7.79
2019-04-29T04:31:20.232Z,7.87
2019-04-29T04:34:23.153Z,7.53
2019-04-29T04:37:26.055Z,7.59
2019-04-29T04:40:36.796Z,7.76
2019-04-29T04:43:39.717Z,7.50
2019-04-29T04:46:42.653Z,7.58
2019-04-29T04:49:45.624Z,7.72
2019-04-29T04:52:48.521Z,7.60
2019-04-29T04:55:53.371Z,7.75
2019-04-29T04:58:56.641Z,7.64
2019-04-29T05:01:59.549Z,7.46
2019-04-29T05:05:02.653Z,7.44
2019-04-29T05:08:05.670Z,7.70
2019-04-29T05:11:08.583Z,7.63
2019-04-29T05:14:11.502Z,7.60
2019-04-29T05:17:15.507Z,7.69
2019-04-29T05:20:18.428Z,8.02
2019-04-29T05:23:21.367Z,7.87
2019-04-29T05:26:24.291Z,7.72
2019-04-29T05:29:28.776Z,7.60
2019-04-29T05:32:32.178Z,7.60
2019-04-29T05:35:50.582Z,7.57
2019-04-29T05:38:58.164Z,7.65
2019-04-29T05:42:01.185Z,7.81
2019-04-29T05:45:24.000Z,7.87
2019-04-29T05:48:27.574Z,7.90
2019-04-29T05:51:57.500Z,8.01
2019-04-29T05:55:01.866Z,8.34
2019-04-29T05:58:11.534Z,8.22
2019-04-29T06:01:19.178Z,8.38
2019-04-29T06:04:22.084Z,8.31
2019-04-29T06:07:26.832Z,8.32
2019-04-29T06:10:29.845Z,8.39
2019-04-29T06:13:32.770Z,8.52
2019-04-29T06:16:35.698Z,8.49
2019-04-29T06:19:41.083Z,8.62
2019-04-29T06:22:44.104Z,8.58
2019-04-29T06:25:47.291Z,8.56
2019-04-29T06:28:50.219Z,8.65
2019-04-29T06:31:53.142Z,8.83
2019-04-29T06:34:56.049Z,8.88
2019-04-29T06:37:58.974Z,8.81
2019-04-29T06:41:05.458Z,8.99
2019-04-29T06:44:15.838Z,8.98
2019-04-29T06:47:12.669Z,8.95
2019-04-29T06:50:15.687Z,9.06
2019-04-29T06:53:21.234Z,9.09
2019-04-29T06:56:23.463Z,9.26
2019-04-29T06:59:26.795Z,9.36
2019-04-29T07:02:30.079Z,9.46
2019-04-29T07:05:32.989Z,9.38
2019-04-29T07:08:36.243Z,9.43
2019-04-29T07:11:39.179Z,9.47
2019-04-29T07:14:42.449Z,9.52
2019-04-29T07:17:45.427Z,9.72
2019-04-29T07:20:48.731Z,9.78
2019-04-29T07:23:51.669Z,10.06
2019-04-29T07:26:57.889Z,10.25
2019-04-29T07:30:01.679Z,10.34
2019-04-29T07:33:05.698Z,10.40
2019-04-29T07:36:11.173Z,10.58
2019-04-29T07:39:13.552Z,10.78
2019-04-29T07:42:16.581Z,10.87
2019-04-29T07:45:44.360Z,11.04
2019-04-29T07:48:44.142Z,10.99
2019-04-29T07:51:47.483Z,11.25
2019-04-29T07:54:55.248Z,11.36
2019-04-29T07:57:55.256Z,11.34
2019-04-29T08:00:58.189Z,11.38
2019-04-29T08:04:01.119Z,11.39
2019-04-29T08:07:04.038Z,11.58
2019-04-29T08:10:22.744Z,11.56
2019-04-29T08:13:13.930Z,11.61
2019-04-29T08:16:18.467Z,11.75
2019-04-29T08:19:24.579Z,11.82
2019-04-29T08:22:27.832Z,11.88
2019-04-29T08:25:33.341Z,11.89
2019-04-29T08:28:37.400Z,11.98
2019-04-29T08:31:40.632Z,12.01
2019-04-29T08:34:44.653Z,12.02
2019-04-29T08:37:47.555Z,12.06
2019-04-29T08:40:51.702Z,12.15
2019-04-29T08:44:16.660Z,12.04
2019-04-29T08:47:30.563Z,12.16
2019-04-29T08:50:27.958Z,12.21
2019-04-29T08:53:30.904Z,12.61
2019-04-29T08:56:33.810Z,12.50
2019-04-29T08:59:36.778Z,12.77
2019-04-29T09:02:41.281Z,12.77
2019-04-29T09:05:46.101Z,12.75
2019-04-29T09:08:55.262Z,13.00
2019-04-29T09:11:54.689Z,12.85
2019-04-29T09:14:57.619Z,12.72
2019-04-29T09:18:00.531Z,12.94
2019-04-29T09:21:03.475Z,13.18
2019-04-29T09:24:06.795Z,13.41
2019-04-29T09:27:16.975Z,13.70
2019-04-29T09:30:20.032Z,13.47
2019-04-29T09:33:23.014Z,13.61
2019-04-29T09:36:28.664Z,13.39
2019-04-29T09:39:42.945Z,13.58
2019-04-29T09:42:51.897Z,13.78
2019-04-29T09:46:00.649Z,14.10
2019-04-29T09:49:03.579Z,13.71
2019-04-29T09:52:06.518Z,13.33
2019-04-29T09:55:09.869Z,13.47
2019-04-29T09:58:13.170Z,13.53
2019-04-29T10:01:24.052Z,14.04
2019-04-29T10:04:36.701Z,14.39
2019-04-29T10:07:39.748Z,14.55
2019-04-29T10:10:43.563Z,14.06
2019-04-29T10:13:46.581Z,13.85
2019-04-29T10:16:56.231Z,13.53
2019-04-29T10:20:51.581Z,13.51
2019-04-29T10:23:55.686Z,13.31
2019-04-29T10:26:58.739Z,13.82
2019-04-29T10:30:02.205Z,14.69
2019-04-29T10:33:05.753Z,15.03
2019-04-29T10:36:08.692Z,14.42
2019-04-29T10:39:38.849Z,13.93
2019-04-29T10:43:21.433Z,13.74
2019-04-29T10:46:42.752Z,13.54
2019-04-29T10:49:49.983Z,14.65
2019-04-29T10:52:52.997Z,15.03
2019-04-29T10:55:55.929Z,14.52
2019-04-29T10:58:58.842Z,14.20
2019-04-29T11:02:31.592Z,14.54
2019-04-29T11:05:44.602Z,14.49
2019-04-29T11:08:51.833Z,14.40
2019-04-29T11:11:54.757Z,14.29
2019-04-29T11:15:01.212Z,13.96
2019-04-29T11:18:04.429Z,14.12
2019-04-29T11:21:09.007Z,14.26
2019-04-29T11:24:20.389Z,14.35
2019-04-29T11:27:28.139Z,14.19
2019-04-29T11:30:34.957Z,14.28
2019-04-29T11:33:48.929Z,14.31
2019-04-29T11:36:51.860Z,14.26
2019-04-29T11:39:57.118Z,14.49
2019-04-29T11:42:59.615Z,14.52
2019-04-29T11:46:03.024Z,14.47
2019-04-29T11:49:06.667Z,14.52
2019-04-29T11:52:10.400Z,14.49
2019-04-29T11:55:13.973Z,14.54
2019-04-29T11:58:28.032Z,14.49
2019-04-29T12:01:51.793Z,14.63
2019-04-29T12:04:59.717Z,14.92
2019-04-29T12:08:06.668Z,14.78
2019-04-29T12:11:07.742Z,14.79
2019-04-29T12:14:37.975Z,14.91
2019-04-29T12:17:54.456Z,14.97
2019-04-29T12:21:16.980Z,14.75
2019-04-29T12:24:20.628Z,14.59
2019-04-29T12:27:24.251Z,14.55
2019-04-29T12:30:34.624Z,14.79
2019-04-29T12:33:42.045Z,14.66
2019-04-29T12:36:55.957Z,14.69
2019-04-29T12:40:14.585Z,15.03
2019-04-29T12:43:53.573Z,15.13
2019-04-29T12:47:09.035Z,15.83
2019-04-29T12:50:12.333Z,15.70
2019-04-29T12:53:15.296Z,15.66
2019-04-29T12:56:26.194Z,15.29
2019-04-29T12:59:30.573Z,15.65
2019-04-29T13:02:55.501Z,15.80
2019-04-29T13:06:09.921Z,16.23
2019-04-29T13:09:20.047Z,16.11
2019-04-29T13:12:22.956Z,15.69
2019-04-29T13:15:48.467Z,15.79
2019-04-29T13:19:14.451Z,16.31
2019-04-29T13:22:17.153Z,15.69
2019-04-29T13:25:20.902Z,15.47
2019-04-29T13:28:30.233Z,15.33
2019-04-29T13:31:38.015Z,15.50
2019-04-29T13:34:38.199Z,16.32
2019-04-29T13:37:41.159Z,16.09
2019-04-29T13:40:44.160Z,15.79
2019-04-29T13:43:47.170Z,16.81
2019-04-29T13:47:09.691Z,16.98
2019-04-29T13:50:37.952Z,17.75
2019-04-29T13:53:26.657Z,17.56
2019-04-29T13:56:35.447Z,17.55
2019-04-29T13:59:49.259Z,17.25
2019-04-29T14:02:59.130Z,17.90
2019-04-29T14:06:04.221Z,17.62
2019-04-29T14:09:07.935Z,17.64
2019-04-29T14:12:46.618Z,17.58
2019-04-29T14:15:16.688Z,17.65
2019-04-29T14:18:19.631Z,17.50
2019-04-29T14:21:25.567Z,17.62
2019-04-29T14:24:27.413Z,17.89
2019-04-29T14:27:30.373Z,17.51
2019-04-29T14:30:38.928Z,17.64
2019-04-29T14:33:46.442Z,16.29
2019-04-29T14:36:49.424Z,15.86
2019-04-29T14:39:52.346Z,15.71
2019-04-29T14:43:31.361Z,15.75
2019-04-29T14:46:37.240Z,15.65
2019-04-29T14:49:44.865Z,15.38
2019-04-29T14:52:49.386Z,15.41
2019-04-29T14:55:52.611Z,15.49
2019-04-29T14:59:06.496Z,15.40
2019-04-29T15:02:03.777Z,15.15
2019-04-29T15:05:07.287Z,15.05
2019-04-29T15:08:11.490Z,15.03
2019-04-29T15:11:14.462Z,14.96
2019-04-29T15:14:43.270Z,14.87
2019-04-29T15:18:15.333Z,14.76
2019-04-29T15:21:16.759Z,14.72
2019-04-29T15:24:19.641Z,14.67
2019-04-29T15:27:22.889Z,14.55
2019-04-29T15:30:25.762Z,14.51
2019-04-29T15:33:30.544Z,14.54
2019-04-29T15:36:34.912Z,14.56
2019-04-29T15:39:40.810Z,14.57
2019-04-29T15:42:46.431Z,14.50
2019-04-29T15:45:47.809Z,14.43
2019-04-29T15:48:50.698Z,14.43
2019-04-29T15:51:53.550Z,14.31
2019-04-29T15:54:56.438Z,14.34
2019-04-29T15:57:59.343Z,14.32
2019-04-29T16:01:13.099Z,14.34
2019-04-29T16:04:11.304Z,14.29
2019-04-29T16:07:27.892Z,14.32
2019-04-29T16:10:51.750Z,14.29
2019-04-29T16:14:08.796Z,14.34
2019-04-29T16:17:00.621Z,14.36
2019-04-29T16:20:04.099Z,14.32
2019-04-29T16:23:08.270Z,14.31
2019-04-29T16:26:11.151Z,14.24
2019-04-29T16:29:15.408Z,14.16
2019-04-29T16:32:32.478Z,14.08
2019-04-29T16:35:35.593Z,14.01
2019-04-29T16:38:38.830Z,13.97
2019-04-29T16:42:11.441Z,13.85
2019-04-29T16:45:14.837Z,13.88
2019-04-29T16:48:17.803Z,13.89
2019-04-29T16:51:20.684Z,13.93
2019-04-29T16:54:28.145Z,13.87
2019-04-29T16:57:28.949Z,13.80
2019-04-29T17:00:33.181Z,13.89
2019-04-29T17:03:36.049Z,13.72
2019-04-29T17:06:41.682Z,13.67
2019-04-29T17:09:55.566Z,13.91
2019-04-29T17:12:58.465Z,13.82
2019-04-29T17:16:04.668Z,13.77
2019-04-29T17:19:07.582Z,13.81
2019-04-29T17:22:25.334Z,13.79
2019-04-29T17:25:16.442Z,13.71
2019-04-29T17:28:28.805Z,13.67
2019-04-29T17:31:56.107Z,13.67
2019-04-29T17:34:59.799Z,13.65
2019-04-29T17:37:58.737Z,13.75
2019-04-29T17:41:01.650Z,13.60
2019-04-29T17:44:21.836Z,13.65
2019-04-29T17:47:52.983Z,13.70
2019-04-29T17:51:00.947Z,13.74
2019-04-29T17:54:05.851Z,13.72
2019-04-29T17:57:31.232Z,13.68
2019-04-29T18:00:55.424Z,13.86
2019-04-29T18:04:07.744Z,13.75
2019-04-29T18:07:40.585Z,13.66
2019-04-29T18:10:49.307Z,13.62
2019-04-29T18:13:52.594Z,13.64
2019-04-29T18:16:57.352Z,13.80
2019-04-29T18:20:32.197Z,13.67
2019-04-29T18:23:59.260Z,13.63
2019-04-29T18:27:08.094Z,13.65
2019-04-29T18:30:12.384Z,13.70
2019-04-29T18:33:18.977Z,13.59
2019-04-29T18:36:24.352Z,13.62
2019-04-29T18:39:29.979Z,13.53
2019-04-29T18:42:32.842Z,13.59
2019-04-29T18:45:36.815Z,13.47
2019-04-29T18:48:39.981Z,13.49
2019-04-29T18:51:42.857Z,13.52
2019-04-29T18:54:45.714Z,13.66
2019-04-29T18:57:48.584Z,13.62
2019-04-29T19:00:53.815Z,13.47
2019-04-29T19:04:16.247Z,13.36
2019-04-29T19:07:16.500Z,13.29
2019-04-29T19:10:19.353Z,13.25
2019-04-29T19:13:22.277Z,13.22
2019-04-29T19:16:27.339Z,13.29
2019-04-29T19:19:30.870Z,13.44
2019-04-29T19:22:36.008Z,13.39
2019-04-29T19:25:41.611Z,13.23
2019-04-29T19:28:45.163Z,13.30
2019-04-29T19:31:49.854Z,13.27
2019-04-29T19:34:54.930Z,13.26
2019-04-29T19:37:58.176Z,13.30
2019-04-29T19:41:01.133Z,13.25
2019-04-29T19:44:07.678Z,13.42
2019-04-29T19:47:10.864Z,13.35
2019-04-29T19:50:16.625Z,13.13
2019-04-29T19:53:19.594Z,13.14
2019-04-29T19:56:24.573Z,13.40
2019-04-29T19:59:28.068Z,13.34
2019-04-29T20:02:31.822Z,13.32
2019-04-29T20:05:42.757Z,13.17
2019-04-29T20:08:54.017Z,13.24
2019-04-29T20:11:51.027Z,13.28
2019-04-29T20:14:59.212Z,13.18
2019-04-29T20:18:33.255Z,13.10
2019-04-29T20:21:32.445Z,13.11
2019-04-29T20:24:36.324Z,13.04
2019-04-29T20:27:39.439Z,13.09
2019-04-29T20:30:45.559Z,13.17
2019-04-29T20:33:48.934Z,13.10
2019-04-29T20:36:52.527Z,13.07
2019-04-29T20:39:57.100Z,13.18
2019-04-29T20:43:00.424Z,13.20
2019-04-29T20:46:04.874Z,13.13
2019-04-29T20:49:09.057Z,13.16
2019-04-29T20:52:40.627Z,13.17
2019-04-29T20:55:45.839Z,13.32
2019-04-29T20:58:48.761Z,13.30
2019-04-29T21:02:05.119Z,13.06
2019-04-29T21:05:01.745Z,13.19
2019-04-29T21:08:14.311Z,13.17
2019-04-29T21:11:20.806Z,13.24
2019-04-29T21:14:27.182Z,13.11
2019-04-29T21:17:31.971Z,13.09
2019-04-29T21:20:35.539Z,13.03
2019-04-29T21:23:38.394Z,12.94
2019-04-29T21:26:44.341Z,13.19
2019-04-29T21:29:49.822Z,13.05
2019-04-29T21:32:51.132Z,13.09
2019-04-29T21:36:15.378Z,13.12
2019-04-29T21:39:28.068Z,12.99
2019-04-29T21:42:47.102Z,13.05
2019-04-29T21:45:49.022Z,13.01
2019-04-29T21:48:51.911Z,13.06
2019-04-29T21:51:55.498Z,13.02
2019-04-29T21:54:58.462Z,13.15
2019-04-29T21:58:01.354Z,12.96
2019-04-29T22:01:05.409Z,13.00
2019-04-29T22:04:08.369Z,13.04
2019-04-29T22:07:11.544Z,13.01
2019-04-29T22:10:15.380Z,12.95
2019-04-29T22:13:19.694Z,12.99
2019-04-29T22:16:22.562Z,12.95
2019-04-29T22:19:27.986Z,13.08
2019-04-29T22:22:30.694Z,12.91
2019-04-29T22:25:36.694Z,12.99
2019-04-29T22:28:39.668Z,12.93
2019-04-29T22:31:42.698Z,12.96
2019-04-29T22:34:49.471Z,12.98
2019-04-29T22:37:50.339Z,12.96
2019-04-29T22:40:55.145Z,12.96
2019-04-29T22:44:01.811Z,12.97
2019-04-29T22:47:05.612Z,12.95
2019-04-29T22:50:08.697Z,12.88
2019-04-29T22:53:12.674Z,12.93
2019-04-29T22:56:15.965Z,12.91
2019-04-29T22:59:20.257Z,12.84
2019-04-29T23:02:25.112Z,12.90
2019-04-29T23:05:29.152Z,12.84
2019-04-29T23:08:36.550Z,12.78
2019-04-29T23:11:39.329Z,12.89
2019-04-29T23:14:44.415Z,12.87
2019-04-29T23:17:50.829Z,12.95
2019-04-29T23:21:18.026Z,12.92
2019-04-29T23:24:40.950Z,12.94
2019-04-29T23:27:48.482Z,12.92
2019-04-29T23:30:52.252Z,12.88
2019-04-29T23:33:56.398Z,12.83
2019-04-29T23:36:59.022Z,12.80
2019-04-29T23:40:03.131Z,12.76
2019-04-29T23:43:06.288Z,12.87
2019-04-29T23:46:09.199Z,12.89
2019-04-29T23:49:12.102Z,12.85
2019-04-29T23:52:16.066Z,12.87
2019-04-29T23:55:20.575Z,12.87
2019-04-29T23:58:46.763Z,12.85
